sensor_id;sensor_type;location;lat;lon;timestamp;pressure;altitude;pressure_sealevel;temperature;humidity
72061;BME280;59925;52.136;5.420;2022-10-13T00:00:57;102088.03;;;9.83;82.50
72061;BME280;59925;52.136;5.420;2022-10-13T00:03:24;102083.25;;;9.85;82.26
72061;BME280;59925;52.136;5.420;2022-10-13T00:05:51;102084.88;;;9.86;81.88
72061;BME280;59925;52.136;5.420;2022-10-13T00:08:20;102078.47;;;9.87;82.10
72061;BME280;59925;52.136;5.420;2022-10-13T00:10:49;102065.09;;;9.87;82.13
72061;BME280;59925;52.136;5.420;2022-10-13T00:13:16;102058.69;;;9.88;82.29
72061;BME280;59925;52.136;5.420;2022-10-13T00:15:44;102064.63;;;9.90;82.61
72061;BME280;59925;52.136;5.420;2022-10-13T00:18:11;102059.63;;;9.94;82.42
72061;BME280;59925;52.136;5.420;2022-10-13T00:20:47;102061.25;;;9.95;82.46
72061;BME280;59925;52.136;5.420;2022-10-13T00:23:15;102069.28;;;9.95;82.02
72061;BME280;59925;52.136;5.420;2022-10-13T00:25:42;102061.84;;;9.97;82.20
72061;BME280;59925;52.136;5.420;2022-10-13T00:28:10;102066.94;;;9.99;81.66
72061;BME280;59925;52.136;5.420;2022-10-13T00:30:37;102065.06;;;9.99;82.03
72061;BME280;59925;52.136;5.420;2022-10-13T00:33:04;102064.84;;;10.01;82.18
72061;BME280;59925;52.136;5.420;2022-10-13T00:35:30;102060.53;;;10.00;82.15
72061;BME280;59925;52.136;5.420;2022-10-13T00:37:57;102062.97;;;10.01;82.22
72061;BME280;59925;52.136;5.420;2022-10-13T00:40:23;102056.81;;;10.01;81.97
72061;BME280;59925;52.136;5.420;2022-10-13T00:42:50;102050.41;;;10.02;82.09
72061;BME280;59925;52.136;5.420;2022-10-13T00:47:49;102058.66;;;10.00;82.25
72061;BME280;59925;52.136;5.420;2022-10-13T00:50:22;102059.25;;;10.02;82.34
72061;BME280;59925;52.136;5.420;2022-10-13T00:52:50;102055.75;;;10.02;82.29
72061;BME280;59925;52.136;5.420;2022-10-13T00:55:21;102052.03;;;10.03;82.37
72061;BME280;59925;52.136;5.420;2022-10-13T00:57:50;102049.34;;;10.03;82.79
72061;BME280;59925;52.136;5.420;2022-10-13T01:00:21;102051.00;;;10.04;82.75
72061;BME280;59925;52.136;5.420;2022-10-13T01:02:48;102052.13;;;10.08;82.72
72061;BME280;59925;52.136;5.420;2022-10-13T01:05:15;102052.72;;;10.10;82.27
72061;BME280;59925;52.136;5.420;2022-10-13T01:07:43;102055.16;;;10.11;81.96
72061;BME280;59925;52.136;5.420;2022-10-13T01:10:15;102054.59;;;10.09;82.19
72061;BME280;59925;52.136;5.420;2022-10-13T01:13:07;102060.75;;;10.10;82.52
72061;BME280;59925;52.136;5.420;2022-10-13T01:18:21;102046.63;;;10.15;82.48
72061;BME280;59925;52.136;5.420;2022-10-13T01:34:33;102044.53;;;10.28;82.84
72061;BME280;59925;52.136;5.420;2022-10-13T01:37:13;102047.19;;;10.28;82.75
72061;BME280;59925;52.136;5.420;2022-10-13T01:39:52;102044.53;;;10.28;82.52
72061;BME280;59925;52.136;5.420;2022-10-13T01:42:26;102044.06;;;10.32;82.68
72061;BME280;59925;52.136;5.420;2022-10-13T01:44:59;102047.28;;;10.34;82.59
72061;BME280;59925;52.136;5.420;2022-10-13T01:47:29;102036.91;;;10.37;82.76
72061;BME280;59925;52.136;5.420;2022-10-13T01:49:56;102044.97;;;10.37;82.95
72061;BME280;59925;52.136;5.420;2022-10-13T01:52:29;102038.09;;;10.41;82.81
72061;BME280;59925;52.136;5.420;2022-10-13T01:55:07;102037.28;;;10.41;83.19
72061;BME280;59925;52.136;5.420;2022-10-13T01:57:36;102033.56;;;10.42;82.92
72061;BME280;59925;52.136;5.420;2022-10-13T02:00:10;102030.88;;;10.42;82.95
72061;BME280;59925;52.136;5.420;2022-10-13T02:06:02;102029.25;;;10.41;83.62
72061;BME280;59925;52.136;5.420;2022-10-13T02:11:18;102011.63;;;10.45;83.53
72061;BME280;59925;52.136;5.420;2022-10-13T02:16:30;101992.03;;;10.45;83.38
72061;BME280;59925;52.136;5.420;2022-10-13T02:19:01;101988.56;;;10.44;83.83
72061;BME280;59925;52.136;5.420;2022-10-13T02:21:29;101998.22;;;10.45;84.12
72061;BME280;59925;52.136;5.420;2022-10-13T02:23:56;102009.50;;;10.47;84.15
72061;BME280;59925;52.136;5.420;2022-10-13T02:26:23;102011.97;;;10.49;84.00
72061;BME280;59925;52.136;5.420;2022-10-13T02:28:50;102005.53;;;10.50;84.16
72061;BME280;59925;52.136;5.420;2022-10-13T02:31:17;102002.88;;;10.50;84.25
72061;BME280;59925;52.136;5.420;2022-10-13T02:33:43;102005.53;;;10.50;84.01
72061;BME280;59925;52.136;5.420;2022-10-13T02:36:09;101999.34;;;10.49;83.88
72061;BME280;59925;52.136;5.420;2022-10-13T02:38:36;101996.44;;;10.51;83.94
72061;BME280;59925;52.136;5.420;2022-10-13T02:41:02;102001.56;;;10.52;84.18
72061;BME280;59925;52.136;5.420;2022-10-13T02:43:28;101994.09;;;10.54;84.40
72061;BME280;59925;52.136;5.420;2022-10-13T02:45:55;101993.63;;;10.57;84.18
72061;BME280;59925;52.136;5.420;2022-10-13T02:48:21;101986.38;;;10.58;84.15
72061;BME280;59925;52.136;5.420;2022-10-13T02:50:47;101984.53;;;10.58;84.25
72061;BME280;59925;52.136;5.420;2022-10-13T02:53:14;101971.66;;;10.61;84.03
72061;BME280;59925;52.136;5.420;2022-10-13T02:55:40;101970.63;;;10.62;84.14
72061;BME280;59925;52.136;5.420;2022-10-13T02:58:06;101953.25;;;10.64;84.03
72061;BME280;59925;52.136;5.420;2022-10-13T03:00:33;101930.16;;;10.63;83.78
72061;BME280;59925;52.136;5.420;2022-10-13T03:02:59;101937.38;;;10.63;84.01
72061;BME280;59925;52.136;5.420;2022-10-13T03:05:25;101941.94;;;10.62;84.28
72061;BME280;59925;52.136;5.420;2022-10-13T03:07:52;101949.72;;;10.64;84.09
72061;BME280;59925;52.136;5.420;2022-10-13T03:10:18;101947.63;;;10.66;84.54
72061;BME280;59925;52.136;5.420;2022-10-13T03:12:44;101964.78;;;10.65;84.52
72061;BME280;59925;52.136;5.420;2022-10-13T03:15:11;101964.78;;;10.65;84.47
72061;BME280;59925;52.136;5.420;2022-10-13T03:17:37;101953.00;;;10.66;84.41
72061;BME280;59925;52.136;5.420;2022-10-13T03:20:04;101958.94;;;10.68;84.03
72061;BME280;59925;52.136;5.420;2022-10-13T03:22:32;101966.66;;;10.64;84.18
72061;BME280;59925;52.136;5.420;2022-10-13T03:24:59;101973.06;;;10.63;84.42
72061;BME280;59925;52.136;5.420;2022-10-13T03:27:25;101978.19;;;10.65;84.87
72061;BME280;59925;52.136;5.420;2022-10-13T03:29:52;101973.16;;;10.68;84.89
72061;BME280;59925;52.136;5.420;2022-10-13T03:32:18;101966.16;;;10.67;84.99
72061;BME280;59925;52.136;5.420;2022-10-13T03:34:45;101962.19;;;10.70;85.20
72061;BME280;59925;52.136;5.420;2022-10-13T03:37:11;101960.88;;;10.72;84.82
72061;BME280;59925;52.136;5.420;2022-10-13T03:39:37;101942.09;;;10.72;84.71
72061;BME280;59925;52.136;5.420;2022-10-13T03:42:04;101938.38;;;10.73;85.26
72061;BME280;59925;52.136;5.420;2022-10-13T03:44:30;101938.38;;;10.73;85.04
72061;BME280;59925;52.136;5.420;2022-10-13T03:46:56;101935.13;;;10.71;85.55
72061;BME280;59925;52.136;5.420;2022-10-13T03:49:23;101937.81;;;10.71;85.51
72061;BME280;59925;52.136;5.420;2022-10-13T03:51:49;101925.19;;;10.72;85.16
72061;BME280;59925;52.136;5.420;2022-10-13T03:54:15;101924.97;;;10.73;85.35
72061;BME280;59925;52.136;5.420;2022-10-13T03:56:42;101931.13;;;10.74;85.01
72061;BME280;59925;52.136;5.420;2022-10-13T03:59:10;101933.00;;;10.73;85.29
72061;BME280;59925;52.136;5.420;2022-10-13T04:01:38;101931.97;;;10.75;85.54
72061;BME280;59925;52.136;5.420;2022-10-13T04:04:05;101937.31;;;10.75;85.79
72061;BME280;59925;52.136;5.420;2022-10-13T04:06:32;101929.84;;;10.77;85.94
72061;BME280;59925;52.136;5.420;2022-10-13T04:08:59;101920.75;;;10.78;85.68
72061;BME280;59925;52.136;5.420;2022-10-13T04:11:25;101927.72;;;10.79;85.84
72061;BME280;59925;52.136;5.420;2022-10-13T04:13:52;101923.16;;;10.79;85.58
72061;BME280;59925;52.136;5.420;2022-10-13T04:16:20;101927.22;;;10.82;85.48
72061;BME280;59925;52.136;5.420;2022-10-13T04:18:57;101920.00;;;10.82;85.87
72061;BME280;59925;52.136;5.420;2022-10-13T04:21:24;101919.75;;;10.84;86.16
72061;BME280;59925;52.136;5.420;2022-10-13T04:23:56;101906.09;;;10.85;86.40
72061;BME280;59925;52.136;5.420;2022-10-13T04:26:26;101898.59;;;10.87;86.27
72061;BME280;59925;52.136;5.420;2022-10-13T04:28:53;101895.13;;;10.87;86.02
72061;BME280;59925;52.136;5.420;2022-10-13T04:31:21;101892.19;;;10.88;86.13
72061;BME280;59925;52.136;5.420;2022-10-13T04:33:48;101900.25;;;10.88;86.10
72061;BME280;59925;52.136;5.420;2022-10-13T04:36:16;101893.81;;;10.89;85.98
72061;BME280;59925;52.136;5.420;2022-10-13T04:38:43;101897.06;;;10.92;86.30
72061;BME280;59925;52.136;5.420;2022-10-13T04:41:10;101894.13;;;10.93;85.88
72061;BME280;59925;52.136;5.420;2022-10-13T04:43:37;101896.81;;;10.93;86.17
72061;BME280;59925;52.136;5.420;2022-10-13T04:46:06;101899.50;;;10.93;85.82
72061;BME280;59925;52.136;5.420;2022-10-13T04:48:33;101908.59;;;10.92;85.71
72061;BME280;59925;52.136;5.420;2022-10-13T04:51:05;101909.91;;;10.89;86.13
72061;BME280;59925;52.136;5.420;2022-10-13T04:53:32;101921.22;;;10.92;86.18
72061;BME280;59925;52.136;5.420;2022-10-13T04:56:04;101920.66;;;10.89;86.17
72061;BME280;59925;52.136;5.420;2022-10-13T04:58:31;101927.63;;;10.91;86.50
72061;BME280;59925;52.136;5.420;2022-10-13T05:00:57;101922.28;;;10.91;86.22
72061;BME280;59925;52.136;5.420;2022-10-13T05:03:24;101920.66;;;10.89;86.51
72061;BME280;59925;52.136;5.420;2022-10-13T05:05:52;101921.47;;;10.90;86.58
72061;BME280;59925;52.136;5.420;2022-10-13T05:08:18;101915.84;;;10.92;86.56
72061;BME280;59925;52.136;5.420;2022-10-13T05:11:01;101909.44;;;10.93;86.51
72061;BME280;59925;52.136;5.420;2022-10-13T05:13:28;101913.16;;;10.92;86.63
72061;BME280;59925;52.136;5.420;2022-10-13T05:15:55;101910.22;;;10.93;86.61
72061;BME280;59925;52.136;5.420;2022-10-13T05:18:22;101913.47;;;10.95;86.89
72061;BME280;59925;52.136;5.420;2022-10-13T05:20:49;101910.56;;;10.97;86.51
72061;BME280;59925;52.136;5.420;2022-10-13T05:23:15;101912.19;;;10.98;86.52
72061;BME280;59925;52.136;5.420;2022-10-13T05:25:41;101914.63;;;10.99;86.88
72061;BME280;59925;52.136;5.420;2022-10-13T05:28:08;101920.00;;;10.99;86.92
72061;BME280;59925;52.136;5.420;2022-10-13T05:30:34;101921.63;;;11.00;87.02
72061;BME280;59925;52.136;5.420;2022-10-13T05:33:01;101921.38;;;11.02;87.10
72061;BME280;59925;52.136;5.420;2022-10-13T05:35:27;101911.19;;;11.04;87.31
72061;BME280;59925;52.136;5.420;2022-10-13T05:37:54;101906.41;;;11.06;87.49
72061;BME280;59925;52.136;5.420;2022-10-13T05:40:20;101905.34;;;11.07;87.24
72061;BME280;59925;52.136;5.420;2022-10-13T05:42:50;101899.50;;;11.10;87.36
72061;BME280;59925;52.136;5.420;2022-10-13T05:45:18;101900.28;;;11.11;87.14
72061;BME280;59925;52.136;5.420;2022-10-13T05:47:45;101900.03;;;11.12;87.07
72061;BME280;59925;52.136;5.420;2022-10-13T05:50:11;101908.09;;;11.12;87.44
72061;BME280;59925;52.136;5.420;2022-10-13T05:52:38;101901.13;;;11.11;87.11
72061;BME280;59925;52.136;5.420;2022-10-13T05:55:07;101905.97;;;11.14;87.66
72061;BME280;59925;52.136;5.420;2022-10-13T05:57:44;101905.97;;;11.14;87.58
72061;BME280;59925;52.136;5.420;2022-10-13T06:00:14;101898.75;;;11.15;87.88
72061;BME280;59925;52.136;5.420;2022-10-13T06:02:51;101897.91;;;11.14;87.90
72061;BME280;59925;52.136;5.420;2022-10-13T06:05:21;101900.13;;;11.17;88.09
72061;BME280;59925;52.136;5.420;2022-10-13T06:07:49;101890.22;;;11.18;88.11
72061;BME280;59925;52.136;5.420;2022-10-13T06:10:16;101897.75;;;11.21;87.86
72061;BME280;59925;52.136;5.420;2022-10-13T06:12:43;101894.84;;;11.23;88.26
72061;BME280;59925;52.136;5.420;2022-10-13T06:15:09;101890.25;;;11.23;88.41
72061;BME280;59925;52.136;5.420;2022-10-13T06:17:37;101873.94;;;11.25;88.57
72061;BME280;59925;52.136;5.420;2022-10-13T06:20:05;101872.03;;;11.25;88.28
72061;BME280;59925;52.136;5.420;2022-10-13T06:22:32;101870.72;;;11.28;88.44
72061;BME280;59925;52.136;5.420;2022-10-13T06:24:59;101853.56;;;11.29;88.38
72061;BME280;59925;52.136;5.420;2022-10-13T06:27:26;101859.75;;;11.29;88.36
72061;BME280;59925;52.136;5.420;2022-10-13T06:29:52;101872.13;;;11.30;87.97
72061;BME280;59925;52.136;5.420;2022-10-13T06:32:19;101876.66;;;11.30;87.98
72061;BME280;59925;52.136;5.420;2022-10-13T06:34:46;101872.13;;;11.30;88.38
72061;BME280;59925;52.136;5.420;2022-10-13T06:37:12;101861.38;;;11.30;88.46
72061;BME280;59925;52.136;5.420;2022-10-13T06:39:39;101856.56;;;11.32;88.32
72061;BME280;59925;52.136;5.420;2022-10-13T06:42:05;101857.13;;;11.34;88.49
72061;BME280;59925;52.136;5.420;2022-10-13T06:44:32;101862.50;;;11.34;88.59
72061;BME280;59925;52.136;5.420;2022-10-13T06:46:58;101874.84;;;11.35;88.83
72061;BME280;59925;52.136;5.420;2022-10-13T06:49:25;101880.78;;;11.38;88.62
72061;BME280;59925;52.136;5.420;2022-10-13T06:51:52;101883.16;;;11.34;88.86
72061;BME280;59925;52.136;5.420;2022-10-13T06:54:18;101893.91;;;11.34;89.15
72061;BME280;59925;52.136;5.420;2022-10-13T06:56:45;101898.22;;;11.35;89.25
72061;BME280;59925;52.136;5.420;2022-10-13T06:59:11;101906.59;;;11.39;89.37
72061;BME280;59925;52.136;5.420;2022-10-13T07:01:38;101892.09;;;11.40;89.37
72061;BME280;59925;52.136;5.420;2022-10-13T07:04:07;101904.19;;;11.42;89.60
72061;BME280;59925;52.136;5.420;2022-10-13T07:06:34;101896.47;;;11.46;89.59
72061;BME280;59925;52.136;5.420;2022-10-13T07:09:05;101888.97;;;11.48;89.66
72061;BME280;59925;52.136;5.420;2022-10-13T07:11:31;101881.47;;;11.50;89.88
72061;BME280;59925;52.136;5.420;2022-10-13T07:13:58;101877.75;;;11.51;89.91
72061;BME280;59925;52.136;5.420;2022-10-13T07:16:30;101884.47;;;11.54;90.18
72061;BME280;59925;52.136;5.420;2022-10-13T07:18:56;101879.44;;;11.57;89.94
72061;BME280;59925;52.136;5.420;2022-10-13T07:21:23;101882.66;;;11.59;90.02
72061;BME280;59925;52.136;5.420;2022-10-13T07:23:49;101885.69;;;11.63;90.20
72061;BME280;59925;52.136;5.420;2022-10-13T07:26:15;101881.41;;;11.67;90.23
72061;BME280;59925;52.136;5.420;2022-10-13T07:28:43;101883.59;;;11.70;90.10
72061;BME280;59925;52.136;5.420;2022-10-13T07:31:18;101880.41;;;11.73;90.24
72061;BME280;59925;52.136;5.420;2022-10-13T07:33:47;101869.97;;;11.77;90.36
72061;BME280;59925;52.136;5.420;2022-10-13T07:36:14;101879.97;;;11.81;90.38
72061;BME280;59925;52.136;5.420;2022-10-13T07:38:40;101878.97;;;11.88;89.95
72061;BME280;59925;52.136;5.420;2022-10-13T07:41:09;101881.69;;;11.93;90.16
72061;BME280;59925;52.136;5.420;2022-10-13T07:43:35;101883.88;;;11.96;89.99
72061;BME280;59925;52.136;5.420;2022-10-13T07:46:03;101879.66;;;12.00;89.98
72061;BME280;59925;52.136;5.420;2022-10-13T07:48:30;101882.38;;;12.05;90.08
72061;BME280;59925;52.136;5.420;2022-10-13T07:50:57;101882.44;;;12.10;90.34
72061;BME280;59925;52.136;5.420;2022-10-13T07:53:23;101880.31;;;12.13;90.17
72061;BME280;59925;52.136;5.420;2022-10-13T07:55:49;101880.63;;;12.16;90.15
72061;BME280;59925;52.136;5.420;2022-10-13T07:58:16;101883.59;;;12.20;90.20
72061;BME280;59925;52.136;5.420;2022-10-13T08:00:42;101880.41;;;12.23;90.09
72061;BME280;59925;52.136;5.420;2022-10-13T08:03:09;101872.63;;;12.26;90.19
72061;BME280;59925;52.136;5.420;2022-10-13T08:05:36;101871.63;;;12.33;89.88
72061;BME280;59925;52.136;5.420;2022-10-13T08:08:03;101880.53;;;12.38;89.70
72061;BME280;59925;52.136;5.420;2022-10-13T08:10:30;101889.19;;;12.40;89.63
72061;BME280;59925;52.136;5.420;2022-10-13T08:12:56;101873.34;;;12.44;89.89
72061;BME280;59925;52.136;5.420;2022-10-13T08:15:22;101868.81;;;12.50;89.89
72061;BME280;59925;52.136;5.420;2022-10-13T08:17:49;101868.88;;;12.60;89.78
72061;BME280;59925;52.136;5.420;2022-10-13T08:20:15;101865.19;;;12.71;89.62
72061;BME280;59925;52.136;5.420;2022-10-13T08:22:41;101865.81;;;12.84;89.51
72061;BME280;59925;52.136;5.420;2022-10-13T08:25:08;101868.63;;;13.05;89.20
72061;BME280;59925;52.136;5.420;2022-10-13T08:27:35;101860.88;;;13.18;88.92
72061;BME280;59925;52.136;5.420;2022-10-13T08:30:16;101866.69;;;13.43;88.59
72061;BME280;59925;52.136;5.420;2022-10-13T08:32:42;101866.19;;;13.56;88.18
72061;BME280;59925;52.136;5.420;2022-10-13T08:35:09;101863.22;;;13.58;87.36
72061;BME280;59925;52.136;5.420;2022-10-13T08:37:35;101858.94;;;13.62;87.13
72061;BME280;59925;52.136;5.420;2022-10-13T08:40:02;101866.75;;;13.58;86.83
72061;BME280;59925;52.136;5.420;2022-10-13T08:42:28;101868.38;;;13.59;86.86
72061;BME280;59925;52.136;5.420;2022-10-13T08:44:58;101864.06;;;13.63;86.89
72061;BME280;59925;52.136;5.420;2022-10-13T08:47:47;101873.78;;;13.70;86.86
72061;BME280;59925;52.136;5.420;2022-10-13T08:50:23;101870.56;;;13.73;86.99
72061;BME280;59925;52.136;5.420;2022-10-13T08:52:52;101875.13;;;13.72;86.76
72061;BME280;59925;52.136;5.420;2022-10-13T08:55:34;101874.31;;;13.67;86.52
72061;BME280;59925;52.136;5.420;2022-10-13T08:58:11;101861.13;;;13.65;86.49
72061;BME280;59925;52.136;5.420;2022-10-13T09:00:40;101870.25;;;13.64;86.53
72061;BME280;59925;52.136;5.420;2022-10-13T09:03:18;101867.00;;;13.57;86.65
72061;BME280;59925;52.136;5.420;2022-10-13T09:05:57;101846.81;;;13.59;86.84
72061;BME280;59925;52.136;5.420;2022-10-13T09:08:25;101856.00;;;13.69;86.70
72061;BME280;59925;52.136;5.420;2022-10-13T09:10:53;101852.50;;;13.73;86.93
72061;BME280;59925;52.136;5.420;2022-10-13T09:13:20;101861.94;;;13.71;86.50
72061;BME280;59925;52.136;5.420;2022-10-13T09:15:48;101859.50;;;13.74;86.59
72061;BME280;59925;52.136;5.420;2022-10-13T09:18:17;101855.75;;;13.75;86.47
72061;BME280;59925;52.136;5.420;2022-10-13T09:20:44;101859.53;;;13.79;86.42
72061;BME280;59925;52.136;5.420;2022-10-13T09:23:21;101854.94;;;13.75;86.09
72061;BME280;59925;52.136;5.420;2022-10-13T09:25:50;101851.38;;;13.59;86.07
72061;BME280;59925;52.136;5.420;2022-10-13T09:28:26;101854.91;;;13.59;86.17
72061;BME280;59925;52.136;5.420;2022-10-13T09:31:23;101847.06;;;13.53;86.10
72061;BME280;59925;52.136;5.420;2022-10-13T09:34:11;101859.47;;;13.54;86.13
72061;BME280;59925;52.136;5.420;2022-10-13T09:36:38;101850.31;;;13.55;85.91
72061;BME280;59925;52.136;5.420;2022-10-13T09:39:15;101853.28;;;13.58;85.86
72061;BME280;59925;52.136;5.420;2022-10-13T09:41:42;101848.44;;;13.60;85.77
72061;BME280;59925;52.136;5.420;2022-10-13T09:44:29;101851.41;;;13.64;85.56
72061;BME280;59925;52.136;5.420;2022-10-13T09:46:57;101850.88;;;13.72;85.05
72061;BME280;59925;52.136;5.420;2022-10-13T09:49:29;101859.53;;;13.79;85.08
72061;BME280;59925;52.136;5.420;2022-10-13T09:52:03;101847.69;;;13.86;84.71
72061;BME280;59925;52.136;5.420;2022-10-13T10:00:17;101847.72;;;14.27;84.33
72061;BME280;59925;52.136;5.420;2022-10-13T10:02:57;101845.56;;;14.39;83.92
72061;BME280;59925;52.136;5.420;2022-10-13T10:05:43;101853.38;;;14.46;83.77
72061;BME280;59925;52.136;5.420;2022-10-13T10:08:17;101842.34;;;14.48;83.04
72061;BME280;59925;52.136;5.420;2022-10-13T10:10:54;101850.66;;;14.56;82.98
72061;BME280;59925;52.136;5.420;2022-10-13T10:13:23;101845.81;;;14.64;82.62
72061;BME280;59925;52.136;5.420;2022-10-13T10:16:18;101839.88;;;14.72;82.47
72061;BME280;59925;52.136;5.420;2022-10-13T10:18:52;101845.28;;;14.77;81.95
72061;BME280;59925;52.136;5.420;2022-10-13T10:26:54;101839.59;;;14.84;81.85
72061;BME280;59925;52.136;5.420;2022-10-13T10:29:39;101827.69;;;14.90;80.92
72061;BME280;59925;52.136;5.420;2022-10-13T10:32:26;101835.25;;;14.98;81.06
72061;BME280;59925;52.136;5.420;2022-10-13T10:35:00;101837.91;;;15.14;80.60
72061;BME280;59925;52.136;5.420;2022-10-13T10:40:13;101828.38;;;15.27;79.24
72061;BME280;59925;52.136;5.420;2022-10-13T10:45:33;101833.69;;;15.47;78.87
72061;BME280;59925;52.136;5.420;2022-10-13T10:48:15;101827.16;;;15.54;78.47
72061;BME280;59925;52.136;5.420;2022-10-13T10:50:43;101827.63;;;15.66;78.26
72061;BME280;59925;52.136;5.420;2022-10-13T10:56:36;101826.84;;;15.60;77.15
72061;BME280;59925;52.136;5.420;2022-10-13T10:59:41;101819.84;;;15.59;77.25
72061;BME280;59925;52.136;5.420;2022-10-13T11:05:14;101821.16;;;15.67;76.14
72061;BME280;59925;52.136;5.420;2022-10-13T11:10:16;101811.47;;;15.61;76.29
72061;BME280;59925;52.136;5.420;2022-10-13T11:13:05;101810.88;;;15.69;76.30
72061;BME280;59925;52.136;5.420;2022-10-13T11:15:42;101810.56;;;15.76;75.67
72061;BME280;59925;52.136;5.420;2022-10-13T11:19:39;101812.78;;;15.63;76.03
72061;BME280;59925;52.136;5.420;2022-10-13T11:37:27;101805.38;;;15.40;76.35
72061;BME280;59925;52.136;5.420;2022-10-13T11:40:12;101798.91;;;15.36;76.64
72061;BME280;59925;52.136;5.420;2022-10-13T11:43:05;101798.91;;;15.36;77.13
72061;BME280;59925;52.136;5.420;2022-10-13T11:52:03;101791.16;;;15.19;77.41
72061;BME280;59925;52.136;5.420;2022-10-13T11:54:33;101795.53;;;15.04;77.66
72061;BME280;59925;52.136;5.420;2022-10-13T11:57:01;101791.47;;;15.07;78.42
72061;BME280;59925;52.136;5.420;2022-10-13T11:59:30;101786.34;;;15.05;78.41
72061;BME280;59925;52.136;5.420;2022-10-13T12:02:18;101781.78;;;14.95;78.39
72061;BME280;59925;52.136;5.420;2022-10-13T12:05:01;101779.91;;;14.91;78.44
72061;BME280;59925;52.136;5.420;2022-10-13T12:07:38;101776.97;;;14.87;78.61
72061;BME280;59925;52.136;5.420;2022-10-13T12:10:07;101777.22;;;14.91;78.96
72061;BME280;59925;52.136;5.420;2022-10-13T12:12:48;101779.69;;;14.82;78.72
72061;BME280;59925;52.136;5.420;2022-10-13T12:15:27;101778.34;;;14.74;78.96
72061;BME280;59925;52.136;5.420;2022-10-13T12:17:55;101777.25;;;14.75;79.16
72061;BME280;59925;52.136;5.420;2022-10-13T12:20:24;101778.59;;;14.88;79.36
72061;BME280;59925;52.136;5.420;2022-10-13T12:22:52;101774.78;;;14.94;79.14
72061;BME280;59925;52.136;5.420;2022-10-13T12:25:27;101772.34;;;14.93;79.02
72061;BME280;59925;52.136;5.420;2022-10-13T12:27:58;101769.66;;;14.82;78.41
72061;BME280;59925;52.136;5.420;2022-10-13T12:30:28;101761.84;;;14.81;78.85
72061;BME280;59925;52.136;5.420;2022-10-13T12:32:58;101767.81;;;14.83;78.69
72061;BME280;59925;52.136;5.420;2022-10-13T12:35:27;101763.22;;;14.78;78.90
72061;BME280;59925;52.136;5.420;2022-10-13T12:37:55;101765.09;;;14.83;78.99
72061;BME280;59925;52.136;5.420;2022-10-13T12:40:23;101757.78;;;14.83;78.78
72061;BME280;59925;52.136;5.420;2022-10-13T12:42:50;101766.72;;;14.84;78.73
72061;BME280;59925;52.136;5.420;2022-10-13T12:45:19;101755.13;;;14.78;78.83
72061;BME280;59925;52.136;5.420;2022-10-13T12:47:51;101761.59;;;14.77;79.11
72061;BME280;59925;52.136;5.420;2022-10-13T12:52:52;101761.91;;;14.70;79.35
72061;BME280;59925;52.136;5.420;2022-10-13T12:55:21;101758.91;;;14.62;79.79
72061;BME280;59925;52.136;5.420;2022-10-13T12:57:49;101760.00;;;14.61;80.01
72061;BME280;59925;52.136;5.420;2022-10-13T13:00:22;101761.63;;;14.62;80.24
72061;BME280;59925;52.136;5.420;2022-10-13T13:02:51;101760.81;;;14.61;80.21
72061;BME280;59925;52.136;5.420;2022-10-13T13:07:54;101763.81;;;14.44;80.51
72061;BME280;59925;52.136;5.420;2022-10-13T13:10:21;101764.66;;;14.29;80.71
72061;BME280;59925;52.136;5.420;2022-10-13T13:12:49;101767.34;;;14.24;80.97
72061;BME280;59925;52.136;5.420;2022-10-13T13:15:36;101763.84;;;14.18;81.50
72061;BME280;59925;52.136;5.420;2022-10-13T13:20:48;101760.88;;;14.15;81.96
72061;BME280;59925;52.136;5.420;2022-10-13T13:23:14;101761.69;;;14.05;82.25
72061;BME280;59925;52.136;5.420;2022-10-13T13:25:44;101753.59;;;14.05;82.58
72061;BME280;59925;52.136;5.420;2022-10-13T13:28:12;101757.94;;;14.01;82.81
72061;BME280;59925;52.136;5.420;2022-10-13T13:30:40;101759.53;;;14.07;82.97
72061;BME280;59925;52.136;5.420;2022-10-13T13:33:09;101752.50;;;14.16;82.69
72061;BME280;59925;52.136;5.420;2022-10-13T13:35:37;101748.47;;;14.24;82.94
72061;BME280;59925;52.136;5.420;2022-10-13T13:38:03;101753.03;;;14.34;82.57
72061;BME280;59925;52.136;5.420;2022-10-13T13:40:30;101750.34;;;14.39;82.29
72061;BME280;59925;52.136;5.420;2022-10-13T13:42:56;101748.16;;;14.46;81.87
72061;BME280;59925;52.136;5.420;2022-10-13T13:45:23;101744.94;;;14.54;82.00
72061;BME280;59925;52.136;5.420;2022-10-13T13:47:52;101736.00;;;14.59;81.47
72061;BME280;59925;52.136;5.420;2022-10-13T13:50:31;101738.97;;;14.57;81.46
72061;BME280;59925;52.136;5.420;2022-10-13T13:52:58;101732.47;;;14.59;81.12
72061;BME280;59925;52.136;5.420;2022-10-13T13:55:25;101731.94;;;14.67;81.41
72061;BME280;59925;52.136;5.420;2022-10-13T13:57:52;101736.25;;;14.78;81.17
72061;BME280;59925;52.136;5.420;2022-10-13T14:00:19;101737.31;;;14.77;80.91
72061;BME280;59925;52.136;5.420;2022-10-13T14:02:46;101737.06;;;14.74;80.78
72061;BME280;59925;52.136;5.420;2022-10-13T14:05:12;101729.47;;;14.81;80.48
72061;BME280;59925;52.136;5.420;2022-10-13T14:07:40;101725.38;;;14.89;80.37
72061;BME280;59925;52.136;5.420;2022-10-13T14:10:07;101725.88;;;14.96;80.36
72061;BME280;59925;52.136;5.420;2022-10-13T14:12:35;101719.44;;;14.92;79.86
72061;BME280;59925;52.136;5.420;2022-10-13T14:15:01;101715.13;;;14.85;80.00
72061;BME280;59925;52.136;5.420;2022-10-13T14:17:27;101711.91;;;14.83;80.06
72061;BME280;59925;52.136;5.420;2022-10-13T14:19:54;101703.19;;;14.97;80.29
72061;BME280;59925;52.136;5.420;2022-10-13T14:22:21;101699.41;;;15.03;80.14
72061;BME280;59925;52.136;5.420;2022-10-13T14:24:48;101709.66;;;15.01;79.73
72061;BME280;59925;52.136;5.420;2022-10-13T14:27:14;101701.63;;;14.85;79.65